createdAt,value
2022-12-31T00:02:01.744Z,101277.13
2022-12-31T00:04:34.199Z,101280.85
2022-12-31T00:07:06.871Z,101274.02
2022-12-31T00:09:39.424Z,101292.08
2022-12-31T00:12:11.935Z,101297.45
2022-12-31T00:14:44.689Z,101298.85
2022-12-31T00:17:17.418Z,101284.39
2022-12-31T00:19:50.164Z,101290.95
2022-12-31T00:22:22.621Z,101279.07
2022-12-31T00:24:55.086Z,101285.67
2022-12-31T00:27:27.748Z,101297.54
2022-12-31T00:30:04.516Z,101308.54
2022-12-31T00:32:39.803Z,101292.61
2022-12-31T00:35:12.491Z,101288.61
2022-12-31T00:37:45.117Z,101289.61
2022-12-31T00:40:17.815Z,101290.50
2022-12-31T00:42:50.388Z,101306.33
2022-12-31T00:45:22.972Z,101306.27
2022-12-31T00:47:55.452Z,101304.98
2022-12-31T00:50:28.137Z,101303.85
2022-12-31T00:53:01.195Z,101295.02
2022-12-31T00:55:34.105Z,101286.47
2022-12-31T00:58:06.988Z,101290.69
2022-12-31T01:00:41.016Z,101291.91
2022-12-31T01:03:13.804Z,101305.39
2022-12-31T01:05:46.693Z,101311.54
2022-12-31T01:08:20.027Z,101294.26
2022-12-31T01:11:11.559Z,101292.66
2022-12-31T01:13:44.979Z,101293.08
2022-12-31T01:16:18.391Z,101292.67
2022-12-31T01:18:51.371Z,101294.05
2022-12-31T01:21:24.738Z,101299.98
2022-12-31T01:23:57.631Z,101298.73
2022-12-31T01:26:30.570Z,101281.69
2022-12-31T01:29:03.161Z,101296.05
2022-12-31T01:31:37.066Z,101269.40
2022-12-31T01:34:10.425Z,101274.32
2022-12-31T01:36:43.296Z,101290.30
2022-12-31T01:39:16.440Z,101294.48
2022-12-31T01:41:49.745Z,101279.63
2022-12-31T01:44:31.351Z,101293.00
2022-12-31T01:47:06.115Z,101287.19
2022-12-31T01:49:52.737Z,101282.95
2022-12-31T01:52:30.290Z,101291.08
2022-12-31T01:55:18.109Z,101295.89
2022-12-31T01:57:56.515Z,101294.73
2022-12-31T02:00:29.270Z,101290.66
2022-12-31T02:03:02.585Z,101294.25
2022-12-31T02:05:52.470Z,101279.59
2022-12-31T02:08:25.794Z,101291.63
2022-12-31T02:10:58.951Z,101294.83
2022-12-31T02:13:32.092Z,101301.35
2022-12-31T02:16:19.486Z,101306.98
2022-12-31T02:19:20.003Z,101311.07
2022-12-31T02:22:19.555Z,101317.80
2022-12-31T02:25:26.367Z,101274.43
2022-12-31T02:28:14.881Z,101288.23
2022-12-31T02:30:52.204Z,101309.76
2022-12-31T02:33:41.095Z,101304.27
2022-12-31T02:36:26.095Z,101310.26
2022-12-31T02:39:00.522Z,101298.63
2022-12-31T02:41:51.986Z,101301.64
2022-12-31T02:44:30.659Z,101315.95
2022-12-31T02:47:12.359Z,101315.95
2022-12-31T02:49:56.248Z,101316.65
2022-12-31T02:52:31.117Z,101315.77
2022-12-31T02:55:09.614Z,101319.09
2022-12-31T02:58:13.329Z,101310.86
2022-12-31T03:01:14.721Z,101292.87
2022-12-31T03:03:47.838Z,101296.15
2022-12-31T03:06:20.530Z,101308.58
2022-12-31T03:09:14.984Z,101311.60
2022-12-31T03:12:07.107Z,101317.41
2022-12-31T03:14:39.896Z,101321.62
2022-12-31T03:17:12.820Z,101316.59
2022-12-31T03:20:03.669Z,101308.28
2022-12-31T03:22:38.826Z,101320.72
2022-12-31T03:25:33.797Z,101305.23
2022-12-31T03:28:15.560Z,101325.88
2022-12-31T03:30:51.981Z,101314.06
2022-12-31T03:33:25.244Z,101320.34
2022-12-31T03:35:58.190Z,101318.94
2022-12-31T03:38:30.877Z,101321.77
2022-12-31T03:41:04.369Z,101332.56
2022-12-31T03:43:37.121Z,101328.92
2022-12-31T03:46:10.231Z,101316.89
2022-12-31T03:48:43.319Z,101348.11
2022-12-31T03:51:17.195Z,101333.46
2022-12-31T03:53:50.401Z,101343.20
2022-12-31T03:56:23.190Z,101340.24
2022-12-31T03:58:55.900Z,101341.30
2022-12-31T04:01:28.949Z,101342.02
2022-12-31T04:04:02.461Z,101342.92
2022-12-31T04:06:35.111Z,101342.45
2022-12-31T04:09:07.974Z,101339.85
2022-12-31T04:11:40.761Z,101328.54
2022-12-31T04:14:13.870Z,101342.56
2022-12-31T04:16:47.311Z,101346.82
2022-12-31T04:19:20.234Z,101350.70
2022-12-31T04:21:52.987Z,101346.53
2022-12-31T04:24:26.083Z,101346.20
2022-12-31T04:27:05.347Z,101347.08
2022-12-31T04:29:41.883Z,101348.47
2022-12-31T04:32:15.050Z,101349.33
2022-12-31T04:34:48.221Z,101340.27
2022-12-31T04:37:20.819Z,101352.10
2022-12-31T04:39:53.578Z,101348.73
2022-12-31T04:42:26.188Z,101344.72
2022-12-31T04:44:59.240Z,101356.93
2022-12-31T04:47:32.385Z,101357.61
2022-12-31T04:50:05.533Z,101358.83
2022-12-31T04:52:42.648Z,101353.95
2022-12-31T04:55:17.791Z,101354.81
2022-12-31T04:57:51.297Z,101363.92
2022-12-31T05:00:24.987Z,101371.11
2022-12-31T05:02:58.130Z,101375.88
2022-12-31T05:05:31.373Z,101374.69
2022-12-31T05:08:04.329Z,101371.75
2022-12-31T05:10:37.437Z,101354.73
2022-12-31T05:13:10.547Z,101386.56
2022-12-31T05:15:43.960Z,101374.04
2022-12-31T05:18:17.272Z,101392.57
2022-12-31T05:20:50.654Z,101391.55
2022-12-31T05:23:23.819Z,101393.14
2022-12-31T05:25:56.671Z,101393.15
2022-12-31T05:28:29.631Z,101395.06
2022-12-31T05:31:03.016Z,101399.98
2022-12-31T05:33:35.965Z,101392.80
2022-12-31T05:36:09.432Z,101396.30
2022-12-31T05:38:42.500Z,101399.27
2022-12-31T05:41:15.386Z,101391.73
2022-12-31T05:43:48.309Z,101408.66
2022-12-31T05:46:21.469Z,101425.27
2022-12-31T05:48:54.342Z,101432.64
2022-12-31T05:51:27.310Z,101432.83
2022-12-31T05:54:00.447Z,101413.09
2022-12-31T05:56:33.425Z,101426.58
2022-12-31T05:59:06.520Z,101438.30
2022-12-31T06:01:39.874Z,101439.91
2022-12-31T06:04:13.249Z,101436.42
2022-12-31T06:06:46.596Z,101420.02
2022-12-31T06:09:20.602Z,101411.63
2022-12-31T06:11:53.898Z,101441.67
2022-12-31T06:14:27.146Z,101439.40
2022-12-31T06:17:00.468Z,101437.61
2022-12-31T06:19:33.801Z,101432.68
2022-12-31T06:22:07.451Z,101428.61
2022-12-31T06:24:40.092Z,101431.90
2022-12-31T06:27:12.879Z,101433.45
2022-12-31T06:29:46.094Z,101412.33
2022-12-31T06:32:19.153Z,101429.27
2022-12-31T06:34:51.748Z,101453.91
2022-12-31T06:37:24.635Z,101441.33
2022-12-31T06:39:57.263Z,101448.83
2022-12-31T06:42:33.656Z,101449.36
2022-12-31T06:45:06.336Z,101447.45
2022-12-31T06:47:39.227Z,101441.54
2022-12-31T06:50:12.184Z,101453.80
2022-12-31T06:52:46.322Z,101460.80
2022-12-31T06:55:20.268Z,101463.98
2022-12-31T06:57:53.725Z,101463.00
2022-12-31T07:00:27.176Z,101461.60
2022-12-31T07:03:17.382Z,101454.38
2022-12-31T07:05:59.218Z,101459.41
2022-12-31T07:09:01.108Z,101455.19
2022-12-31T07:12:04.093Z,101470.50
2022-12-31T07:14:51.404Z,101468.34
2022-12-31T07:17:48.184Z,101464.95
2022-12-31T07:20:22.768Z,101457.70
2022-12-31T07:22:55.951Z,101457.46
2022-12-31T07:25:30.842Z,101457.59
2022-12-31T07:28:26.925Z,101454.56
2022-12-31T07:31:18.074Z,101458.02
2022-12-31T07:34:09.141Z,101452.78
2022-12-31T07:36:50.093Z,101469.15
2022-12-31T07:39:44.680Z,101472.60
2022-12-31T07:42:26.061Z,101478.33
2022-12-31T07:45:17.397Z,101484.58
2022-12-31T07:47:53.562Z,101486.44
2022-12-31T07:50:28.922Z,101481.95
2022-12-31T07:53:02.318Z,101470.14
2022-12-31T07:55:35.811Z,101462.60
2022-12-31T07:58:44.663Z,101463.59
2022-12-31T08:01:30.183Z,101481.30
2022-12-31T08:04:08.952Z,101483.86
2022-12-31T08:07:19.267Z,101482.55
2022-12-31T08:10:17.668Z,101480.23
2022-12-31T08:12:57.656Z,101481.75
2022-12-31T08:15:30.916Z,101469.16
2022-12-31T08:18:03.929Z,101469.27
2022-12-31T08:20:55.047Z,101479.54
2022-12-31T08:23:53.738Z,101477.21
2022-12-31T08:27:11.863Z,101474.02
2022-12-31T08:29:51.757Z,101474.13
2022-12-31T08:32:49.328Z,101480.73
2022-12-31T08:36:07.102Z,101480.98
2022-12-31T08:39:07.961Z,101474.70
2022-12-31T08:41:49.125Z,101480.54
2022-12-31T08:44:39.754Z,101456.49
2022-12-31T08:47:46.359Z,101473.76
2022-12-31T08:50:20.831Z,101468.13
2022-12-31T08:52:54.136Z,101462.52
2022-12-31T08:55:28.498Z,101458.67
2022-12-31T08:58:06.675Z,101453.48
2022-12-31T09:00:41.176Z,101458.19
2022-12-31T09:03:31.348Z,101453.83
2022-12-31T09:06:29.842Z,101449.96
2022-12-31T09:09:09.696Z,101449.48
2022-12-31T09:12:11.549Z,101443.86
2022-12-31T09:14:47.673Z,101436.34
2022-12-31T09:17:28.722Z,101427.41
2022-12-31T09:20:01.968Z,101421.69
2022-12-31T09:22:35.307Z,101420.20
2022-12-31T09:25:08.754Z,101413.57
2022-12-31T09:27:56.001Z,101408.84
2022-12-31T09:30:30.364Z,101385.55
2022-12-31T09:33:07.882Z,101383.98
2022-12-31T09:35:58.540Z,101399.13
2022-12-31T09:38:43.685Z,101405.65
2022-12-31T09:41:28.505Z,101401.38
2022-12-31T09:44:22.373Z,101401.71
2022-12-31T09:47:30.266Z,101399.02
2022-12-31T09:50:22.961Z,101393.91
2022-12-31T09:53:19.498Z,101383.59
2022-12-31T09:56:04.441Z,101398.41
2022-12-31T09:58:54.229Z,101370.55
2022-12-31T10:01:40.471Z,101381.73
2022-12-31T10:04:19.046Z,101385.36
2022-12-31T10:07:14.383Z,101369.90
2022-12-31T10:09:55.812Z,101370.37
2022-12-31T10:12:39.216Z,101367.52
2022-12-31T10:15:36.167Z,101366.55
2022-12-31T10:18:20.485Z,101358.00
2022-12-31T10:21:18.988Z,101351.56
2022-12-31T10:23:54.189Z,101358.01
2022-12-31T10:26:54.578Z,101356.89
2022-12-31T10:29:29.802Z,101351.53
2022-12-31T10:32:02.501Z,101358.68
2022-12-31T10:34:41.527Z,101355.34
2022-12-31T10:37:21.664Z,101355.19
2022-12-31T10:40:18.916Z,101356.85
2022-12-31T10:43:38.848Z,101347.70
2022-12-31T10:46:11.300Z,101343.74
2022-12-31T10:48:49.673Z,101345.19
2022-12-31T10:51:42.479Z,101344.23
2022-12-31T10:54:35.239Z,101347.21
2022-12-31T10:57:19.591Z,101344.37
2022-12-31T11:00:17.015Z,101338.59
2022-12-31T11:02:54.628Z,101339.52
2022-12-31T11:05:58.119Z,101351.27
2022-12-31T11:08:49.485Z,101349.26
2022-12-31T11:11:56.098Z,101338.87
2022-12-31T11:14:47.079Z,101331.71
2022-12-31T11:17:22.455Z,101330.12
2022-12-31T11:20:39.974Z,101322.63
2022-12-31T11:23:41.844Z,101308.13
2022-12-31T11:26:41.937Z,101313.02
2022-12-31T11:29:41.500Z,101318.41
2022-12-31T11:32:29.281Z,101319.82
2022-12-31T11:35:22.720Z,101323.16
2022-12-31T11:38:17.715Z,101318.89
2022-12-31T11:41:21.376Z,101320.11
2022-12-31T11:43:59.732Z,101318.70
2022-12-31T11:47:04.805Z,101309.89
2022-12-31T11:50:01.269Z,101304.60
2022-12-31T11:52:51.827Z,101310.11
2022-12-31T11:55:53.455Z,101311.10
2022-12-31T11:58:29.197Z,101308.45
2022-12-31T12:01:16.266Z,101297.43
2022-12-31T12:03:50.188Z,101312.41
2022-12-31T12:06:29.361Z,101319.08
2022-12-31T12:09:20.873Z,101317.44
2022-12-31T12:12:02.553Z,101312.43
2022-12-31T12:14:39.274Z,101313.87
2022-12-31T12:17:18.731Z,101318.52
2022-12-31T12:19:57.293Z,101320.73
2022-12-31T12:22:31.950Z,101325.58
2022-12-31T12:25:18.537Z,101328.84
2022-12-31T12:27:51.966Z,101325.70
2022-12-31T12:30:27.751Z,101318.73
2022-12-31T12:33:05.270Z,101315.02
2022-12-31T12:35:39.900Z,101313.88
2022-12-31T12:38:42.495Z,101305.73
2022-12-31T12:41:28.666Z,101318.21
2022-12-31T12:44:17.324Z,101313.27
2022-12-31T12:46:51.829Z,101309.46
2022-12-31T12:49:29.697Z,101305.38
2022-12-31T12:52:24.334Z,101305.56
2022-12-31T12:55:36.042Z,101311.86
2022-12-31T12:58:28.881Z,101322.55
2022-12-31T13:01:21.487Z,101320.09
2022-12-31T13:04:34.978Z,101315.33
2022-12-31T13:07:37.138Z,101313.67
2022-12-31T13:10:21.651Z,101312.08
2022-12-31T13:13:26.084Z,101309.77
2022-12-31T13:16:19.202Z,101307.98
2022-12-31T13:19:00.784Z,101323.52
2022-12-31T13:21:56.062Z,101318.76
2022-12-31T13:24:34.240Z,101324.23
2022-12-31T13:27:29.878Z,101321.35
2022-12-31T13:30:08.533Z,101331.49
2022-12-31T13:32:48.152Z,101330.48
2022-12-31T13:35:36.617Z,101327.91
2022-12-31T13:38:24.816Z,101331.77
2022-12-31T13:41:11.314Z,101332.56
2022-12-31T13:44:15.797Z,101330.28
2022-12-31T13:47:04.610Z,101331.87
2022-12-31T13:49:47.082Z,101318.36
2022-12-31T13:52:29.730Z,101317.62
2022-12-31T13:55:21.623Z,101302.89
2022-12-31T13:57:59.228Z,101326.80
2022-12-31T14:00:49.677Z,101329.82
2022-12-31T14:03:41.231Z,101330.14
2022-12-31T14:06:27.671Z,101330.23
2022-12-31T14:09:01.171Z,101327.91
2022-12-31T14:11:56.851Z,101324.63
2022-12-31T14:14:43.857Z,101308.06
2022-12-31T14:17:39.598Z,101328.20
2022-12-31T14:20:47.995Z,101328.20
2022-12-31T14:23:49.675Z,101308.14
2022-12-31T14:26:27.928Z,101311.66
2022-12-31T14:29:16.302Z,101333.28
2022-12-31T14:31:52.283Z,101326.34
2022-12-31T14:34:52.503Z,101328.89
2022-12-31T14:37:43.274Z,101328.89
2022-12-31T14:40:56.977Z,101341.16
2022-12-31T14:44:06.295Z,101345.25
2022-12-31T14:47:06.000Z,101345.86
2022-12-31T14:49:58.983Z,101347.89
2022-12-31T14:52:36.410Z,101338.05
2022-12-31T14:55:24.527Z,101352.44
2022-12-31T14:58:26.966Z,101351.39
2022-12-31T15:01:20.274Z,101350.67
2022-12-31T15:03:53.096Z,101344.85
2022-12-31T15:06:52.589Z,101311.86
2022-12-31T15:09:46.578Z,101351.54
2022-12-31T15:12:40.018Z,101348.88
2022-12-31T15:15:26.754Z,101348.23
2022-12-31T15:18:16.857Z,101350.80
2022-12-31T15:21:09.154Z,101343.98
2022-12-31T15:23:44.338Z,101339.27
2022-12-31T15:26:32.030Z,101343.98
2022-12-31T15:29:08.478Z,101340.33
2022-12-31T15:31:49.262Z,101340.04
2022-12-31T15:34:36.354Z,101340.90
2022-12-31T15:37:31.403Z,101335.70
2022-12-31T15:40:30.169Z,101328.83
2022-12-31T15:43:14.199Z,101325.14
2022-12-31T15:45:48.807Z,101316.46
2022-12-31T15:48:43.705Z,101334.54
2022-12-31T15:51:26.344Z,101340.09
2022-12-31T15:54:01.495Z,101345.71
2022-12-31T15:56:38.952Z,101336.33
2022-12-31T15:59:18.283Z,101344.98
2022-12-31T16:01:52.015Z,101361.21
2022-12-31T16:04:28.285Z,101352.08
2022-12-31T16:07:05.768Z,101347.00
2022-12-31T16:09:39.240Z,101367.13
2022-12-31T16:12:25.400Z,101368.97
2022-12-31T16:15:04.351Z,101354.50
2022-12-31T16:17:40.393Z,101352.45
2022-12-31T16:20:30.844Z,101347.86
2022-12-31T16:23:19.908Z,101360.96
2022-12-31T16:25:55.267Z,101359.48
2022-12-31T16:28:35.260Z,101357.78
2022-12-31T16:31:10.462Z,101354.33
2022-12-31T16:33:43.717Z,101355.36
2022-12-31T16:36:24.306Z,101350.67
2022-12-31T16:39:15.832Z,101343.88
2022-12-31T16:41:48.702Z,101346.89
2022-12-31T16:44:32.306Z,101360.00
2022-12-31T16:47:07.986Z,101352.60
2022-12-31T16:49:44.104Z,101352.02
2022-12-31T16:52:51.642Z,101356.56
2022-12-31T16:55:30.739Z,101377.99
2022-12-31T16:58:21.686Z,101381.92
2022-12-31T17:00:55.267Z,101376.54
2022-12-31T17:03:30.643Z,101377.91
2022-12-31T17:06:23.105Z,101377.42
2022-12-31T17:09:14.478Z,101371.02
2022-12-31T17:11:50.877Z,101375.92
2022-12-31T17:14:29.252Z,101385.46
2022-12-31T17:17:07.996Z,101383.59
2022-12-31T17:19:46.010Z,101377.64
2022-12-31T17:22:34.579Z,101371.26
2022-12-31T17:25:34.897Z,101380.61
2022-12-31T17:28:23.251Z,101373.48
2022-12-31T17:31:00.609Z,101375.70
2022-12-31T17:33:34.815Z,101373.23
2022-12-31T17:36:27.424Z,101370.23
2022-12-31T17:39:21.258Z,101370.14
2022-12-31T17:41:57.923Z,101363.77
2022-12-31T17:44:31.459Z,101381.30
2022-12-31T17:47:06.540Z,101378.61
2022-12-31T17:49:39.704Z,101381.16
2022-12-31T17:52:16.915Z,101367.36
2022-12-31T17:54:50.251Z,101364.34
2022-12-31T17:57:29.251Z,101371.17
2022-12-31T18:00:02.331Z,101372.77
2022-12-31T18:02:46.682Z,101369.75
2022-12-31T18:05:22.719Z,101371.23
2022-12-31T18:07:56.462Z,101365.11
2022-12-31T18:10:31.955Z,101360.09
2022-12-31T18:13:10.553Z,101361.13
2022-12-31T18:15:43.493Z,101357.14
2022-12-31T18:18:33.199Z,101340.41
2022-12-31T18:21:36.657Z,101352.55
2022-12-31T18:24:15.598Z,101361.38
2022-12-31T18:26:48.851Z,101364.94
2022-12-31T18:29:22.104Z,101367.77
2022-12-31T18:31:56.512Z,101358.53
2022-12-31T18:34:29.535Z,101361.80
2022-12-31T18:37:02.898Z,101361.41
2022-12-31T18:39:35.601Z,101358.27
2022-12-31T18:42:08.251Z,101371.01
2022-12-31T18:44:41.227Z,101373.30
2022-12-31T18:47:19.178Z,101370.82
2022-12-31T18:49:53.129Z,101371.26
2022-12-31T18:52:26.007Z,101377.31
2022-12-31T18:54:58.858Z,101356.97
2022-12-31T18:57:31.903Z,101385.17
2022-12-31T19:00:04.795Z,101378.60
2022-12-31T19:02:37.625Z,101394.08
2022-12-31T19:05:27.898Z,101394.36
2022-12-31T19:08:01.328Z,101396.77
2022-12-31T19:10:35.578Z,101398.20
2022-12-31T19:13:08.475Z,101392.31
2022-12-31T19:15:49.742Z,101406.97
2022-12-31T19:18:22.722Z,101405.58
2022-12-31T19:20:56.045Z,101400.62
2022-12-31T19:23:29.114Z,101385.55
2022-12-31T19:26:02.072Z,101385.95
2022-12-31T19:28:35.166Z,101390.41
2022-12-31T19:31:08.345Z,101397.08
2022-12-31T19:33:41.678Z,101411.85
2022-12-31T19:36:26.388Z,101410.35
2022-12-31T19:38:59.215Z,101407.50
2022-12-31T19:41:32.312Z,101408.17
2022-12-31T19:44:05.563Z,101414.91
2022-12-31T19:46:38.471Z,101416.61
2022-12-31T19:49:14.040Z,101400.31
2022-12-31T19:51:47.099Z,101413.76
2022-12-31T19:54:20.153Z,101411.29
2022-12-31T19:56:53.350Z,101414.30
2022-12-31T19:59:26.950Z,101411.30
2022-12-31T20:02:01.116Z,101409.70
2022-12-31T20:04:34.074Z,101411.44
2022-12-31T20:07:07.019Z,101410.05
2022-12-31T20:09:39.925Z,101412.33
2022-12-31T20:12:13.051Z,101412.15
2022-12-31T20:14:46.160Z,101410.30
2022-12-31T20:17:19.502Z,101412.77
2022-12-31T20:19:52.786Z,101414.65
2022-12-31T20:22:25.505Z,101403.02
2022-12-31T20:24:58.635Z,101414.87
2022-12-31T20:27:31.609Z,101412.63
2022-12-31T20:30:04.458Z,101413.78
2022-12-31T20:32:37.645Z,101415.77
2022-12-31T20:35:10.793Z,101411.95
2022-12-31T20:37:44.002Z,101414.11
2022-12-31T20:40:17.444Z,101414.55
2022-12-31T20:42:50.455Z,101413.79
2022-12-31T20:45:23.464Z,101406.30
2022-12-31T20:47:56.915Z,101402.83
2022-12-31T20:50:30.251Z,101394.14
2022-12-31T20:53:03.175Z,101405.17
2022-12-31T20:55:38.612Z,101409.04
2022-12-31T20:58:11.146Z,101405.16
2022-12-31T21:00:43.833Z,101408.13
2022-12-31T21:03:53.531Z,101401.19
2022-12-31T21:06:13.651Z,101424.44
2022-12-31T21:08:46.806Z,101415.04
2022-12-31T21:11:37.951Z,101437.61
2022-12-31T21:14:10.664Z,101428.64
2022-12-31T21:16:43.276Z,101449.34
2022-12-31T21:19:15.826Z,101436.30
2022-12-31T21:21:48.700Z,101449.40
2022-12-31T21:24:24.095Z,101444.41
2022-12-31T21:27:00.294Z,101441.68
2022-12-31T21:29:34.891Z,101421.46
2022-12-31T21:32:08.625Z,101419.20
2022-12-31T21:34:41.419Z,101417.80
2022-12-31T21:37:14.221Z,101436.11
2022-12-31T21:39:46.836Z,101433.82
2022-12-31T21:42:19.672Z,101418.75
2022-12-31T21:44:52.952Z,101426.02
2022-12-31T21:47:47.606Z,101426.02
2022-12-31T21:50:21.170Z,101427.45
2022-12-31T21:52:53.687Z,101430.96
2022-12-31T21:55:44.985Z,101431.50
2022-12-31T21:58:27.535Z,101423.52
2022-12-31T22:01:21.462Z,101432.65
2022-12-31T22:03:54.328Z,101433.44
2022-12-31T22:06:27.678Z,101426.57
2022-12-31T22:09:00.548Z,101407.77
2022-12-31T22:11:33.954Z,101415.55
2022-12-31T22:14:07.043Z,101423.63
2022-12-31T22:16:40.253Z,101431.66
2022-12-31T22:19:13.379Z,101427.70
2022-12-31T22:21:46.546Z,101428.40
2022-12-31T22:24:19.492Z,101427.13
2022-12-31T22:26:54.506Z,101434.23
2022-12-31T22:29:27.477Z,101433.17
2022-12-31T22:32:01.434Z,101432.96
2022-12-31T22:34:34.483Z,101433.44
2022-12-31T22:37:27.569Z,101414.60
2022-12-31T22:40:01.992Z,101426.08
2022-12-31T22:42:35.100Z,101426.21
2022-12-31T22:45:08.993Z,101433.13
2022-12-31T22:47:42.245Z,101424.67
2022-12-31T22:50:15.140Z,101441.13
2022-12-31T22:52:48.098Z,101435.05
2022-12-31T22:55:21.271Z,101414.48
2022-12-31T22:57:54.706Z,101432.69
2022-12-31T23:00:41.434Z,101431.67
2022-12-31T23:03:14.785Z,101426.07
2022-12-31T23:05:51.909Z,101415.45
2022-12-31T23:08:25.325Z,101430.64
2022-12-31T23:11:00.905Z,101431.84
2022-12-31T23:13:57.954Z,101432.52
2022-12-31T23:16:50.846Z,101431.81
2022-12-31T23:19:42.263Z,101406.61
2022-12-31T23:22:33.039Z,101403.09
2022-12-31T23:25:05.826Z,101429.27
2022-12-31T23:27:38.804Z,101432.45
2022-12-31T23:30:12.196Z,101432.83
2022-12-31T23:32:44.812Z,101440.07
2022-12-31T23:35:18.224Z,101443.10
2022-12-31T23:37:50.908Z,101440.85
2022-12-31T23:40:24.215Z,101439.48
2022-12-31T23:42:57.067Z,101438.89
2022-12-31T23:45:33.251Z,101441.83
2022-12-31T23:48:06.689Z,101445.57
2022-12-31T23:50:41.771Z,101436.49
2022-12-31T23:53:14.345Z,101435.58
2022-12-31T23:55:47.070Z,101441.02
2022-12-31T23:58:20.075Z,101441.17
